createdAt,value
2018-12-13T00:00:37.379Z,5.50
2018-12-13T00:03:05.269Z,4.63
2018-12-13T00:05:32.855Z,6.17
2018-12-13T00:08:01.210Z,5.87
2018-12-13T00:10:28.844Z,6.03
2018-12-13T00:12:56.444Z,6.13
2018-12-13T00:15:24.063Z,6.17
2018-12-13T00:17:51.942Z,5.70
2018-12-13T00:20:19.546Z,5.93
2018-12-13T00:22:47.892Z,5.97
2018-12-13T00:25:15.520Z,5.63
2018-12-13T00:27:44.829Z,5.20
2018-12-13T00:30:12.422Z,7.57
2018-12-13T00:32:40.328Z,6.30
2018-12-13T00:35:08.683Z,7.40
2018-12-13T00:37:36.251Z,5.77
2018-12-13T00:40:04.207Z,5.70
2018-12-13T00:42:31.788Z,5.23
2018-12-13T00:44:59.397Z,7.33
2018-12-13T00:47:27.732Z,5.63
2018-12-13T00:49:55.302Z,5.10
2018-12-13T00:52:23.687Z,5.53
2018-12-13T00:54:52.024Z,4.97
2018-12-13T00:57:19.604Z,5.70
2018-12-13T00:59:47.203Z,7.30
2018-12-13T01:02:14.800Z,6.60
2018-12-13T01:04:42.414Z,5.40
2018-12-13T01:07:10.759Z,5.90
2018-12-13T01:09:38.340Z,5.73
2018-12-13T01:12:06.715Z,7.30
2018-12-13T01:14:34.287Z,7.68
2018-12-13T01:17:02.682Z,5.80
2018-12-13T01:19:32.244Z,5.07
2018-12-13T01:21:59.808Z,7.60
2018-12-13T01:24:27.416Z,6.33
2018-12-13T01:26:56.078Z,5.13
2018-12-13T01:29:23.689Z,4.93
2018-12-13T01:31:51.316Z,5.10
2018-12-13T01:34:19.680Z,5.80
2018-12-13T01:36:52.359Z,5.20
2018-12-13T01:39:14.824Z,5.20
2018-12-13T01:41:44.925Z,5.40
2018-12-13T01:44:12.510Z,5.40
2018-12-13T01:46:40.852Z,5.60
2018-12-13T01:49:08.470Z,5.13
2018-12-13T01:51:36.043Z,7.07
2018-12-13T01:54:03.646Z,5.20
2018-12-13T01:56:31.221Z,5.20
2018-12-13T01:58:59.560Z,5.33
2018-12-13T02:01:27.152Z,4.57
2018-12-13T02:03:54.755Z,5.60
2018-12-13T02:06:22.676Z,4.30
2018-12-13T02:08:50.252Z,5.43
2018-12-13T02:11:17.827Z,4.97
2018-12-13T02:13:46.187Z,5.17
2018-12-13T02:16:13.770Z,5.03
2018-12-13T02:18:42.200Z,5.57
2018-12-13T02:21:12.753Z,4.87
2018-12-13T02:23:40.325Z,5.60
2018-12-13T02:26:07.928Z,4.83
2018-12-13T02:28:35.495Z,4.97
2018-12-13T02:31:03.145Z,7.20
2018-12-13T02:33:30.748Z,5.13
2018-12-13T02:35:58.336Z,4.90
2018-12-13T02:38:25.929Z,8.27
2018-12-13T02:40:53.533Z,5.87
2018-12-13T02:43:21.491Z,5.67
2018-12-13T02:45:49.071Z,5.00
2018-12-13T02:48:16.644Z,5.17
2018-12-13T02:50:44.246Z,7.07
2018-12-13T02:53:11.818Z,7.80
2018-12-13T02:55:39.837Z,8.00
2018-12-13T02:58:07.424Z,8.18
2018-12-13T03:00:35.768Z,7.97
2018-12-13T03:03:03.369Z,5.90
2018-12-13T03:05:30.955Z,7.90
2018-12-13T03:07:58.580Z,8.13
2018-12-13T03:10:26.169Z,8.98
2018-12-13T03:12:53.747Z,5.77
2018-12-13T03:15:21.361Z,5.87
2018-12-13T03:17:48.924Z,5.37
2018-12-13T03:20:17.654Z,4.83
2018-12-13T03:22:45.225Z,4.63
2018-12-13T03:25:12.801Z,5.50
2018-12-13T03:27:40.397Z,7.43
2018-12-13T03:30:08.013Z,6.87
2018-12-13T03:32:35.909Z,7.33
2018-12-13T03:35:03.493Z,8.17
2018-12-13T03:37:31.954Z,10.33
2018-12-13T03:39:59.565Z,10.07
2018-12-13T03:42:27.141Z,6.80
2018-12-13T03:44:55.366Z,6.27
2018-12-13T03:47:22.983Z,5.80
2018-12-13T03:49:50.572Z,5.50
2018-12-13T03:52:18.185Z,5.47
2018-12-13T03:54:45.759Z,5.37
2018-12-13T03:57:13.675Z,4.87
2018-12-13T03:59:41.282Z,5.10
2018-12-13T04:02:08.828Z,5.30
2018-12-13T04:04:36.441Z,5.70
2018-12-13T04:07:04.010Z,5.40
2018-12-13T04:09:31.590Z,5.50
2018-12-13T04:11:59.658Z,7.57
2018-12-13T04:14:27.244Z,6.73
2018-12-13T04:16:54.838Z,11.33
2018-12-13T04:19:23.104Z,13.70
2018-12-13T04:21:50.680Z,20.88
2018-12-13T04:24:18.274Z,11.97
2018-12-13T04:26:45.882Z,8.07
2018-12-13T04:29:13.464Z,7.03
2018-12-13T04:31:41.038Z,5.63
2018-12-13T04:34:08.926Z,6.30
2018-12-13T04:36:37.625Z,5.70
2018-12-13T04:39:05.217Z,8.60
2018-12-13T04:41:32.845Z,8.77
2018-12-13T04:44:00.415Z,6.13
2018-12-13T04:46:27.991Z,6.27
2018-12-13T04:48:56.645Z,5.43
2018-12-13T04:51:24.229Z,6.13
2018-12-13T04:53:51.811Z,7.83
2018-12-13T04:56:20.213Z,5.73
2018-12-13T04:58:47.786Z,5.93
2018-12-13T05:01:15.364Z,5.50
2018-12-13T05:03:43.355Z,5.70
2018-12-13T05:06:10.920Z,5.73
2018-12-13T05:08:39.079Z,5.67
2018-12-13T05:11:06.655Z,5.97
2018-12-13T05:13:34.896Z,8.67
2018-12-13T05:16:02.506Z,9.40
2018-12-13T05:18:30.850Z,9.30
2018-12-13T05:20:59.448Z,7.17
2018-12-13T05:23:27.028Z,6.47
2018-12-13T05:25:54.605Z,5.70
2018-12-13T05:28:23.254Z,6.07
2018-12-13T05:30:50.834Z,6.43
2018-12-13T05:33:19.387Z,6.90
2018-12-13T05:35:49.013Z,6.70
2018-12-13T05:38:16.576Z,6.57
2018-12-13T05:40:44.161Z,6.97
2018-12-13T05:43:12.108Z,9.70
2018-12-13T05:45:41.769Z,9.30
2018-12-13T05:48:09.334Z,9.27
2018-12-13T05:50:36.949Z,7.00
2018-12-13T05:53:04.521Z,7.17
2018-12-13T05:55:32.861Z,6.90
2018-12-13T05:58:00.731Z,6.60
2018-12-13T06:00:28.306Z,7.20
2018-12-13T06:02:56.704Z,7.13
2018-12-13T06:05:24.314Z,6.20
2018-12-13T06:07:54.999Z,6.43
2018-12-13T06:10:21.314Z,6.90
2018-12-13T06:12:48.904Z,6.67
2018-12-13T06:15:17.698Z,9.30
2018-12-13T06:17:45.850Z,6.90
2018-12-13T06:20:14.650Z,7.13
2018-12-13T06:22:42.216Z,9.43
2018-12-13T06:25:10.613Z,7.43
2018-12-13T06:27:38.185Z,6.17
2018-12-13T06:30:07.585Z,6.67
2018-12-13T06:32:33.874Z,6.60
2018-12-13T06:35:01.446Z,6.30
2018-12-13T06:37:29.407Z,6.20
2018-12-13T06:39:57.002Z,6.87
2018-12-13T06:42:24.588Z,8.82
2018-12-13T06:44:52.504Z,7.30
2018-12-13T06:47:20.376Z,6.73
2018-12-13T06:49:48.051Z,6.30
2018-12-13T06:52:15.993Z,6.40
2018-12-13T06:54:43.570Z,5.63
2018-12-13T06:57:11.169Z,6.30
2018-12-13T06:59:39.102Z,5.97
2018-12-13T07:02:06.679Z,9.10
2018-12-13T07:04:35.433Z,6.60
2018-12-13T07:07:03.809Z,5.70
2018-12-13T07:09:31.373Z,6.23
2018-12-13T07:11:58.952Z,7.43
2018-12-13T07:14:26.953Z,6.73
2018-12-13T07:16:54.525Z,9.90
2018-12-13T07:19:22.101Z,6.87
2018-12-13T07:21:49.706Z,6.87
2018-12-13T07:24:17.470Z,8.27
2018-12-13T07:26:45.693Z,6.87
2018-12-13T07:29:13.266Z,6.87
2018-12-13T07:31:40.880Z,7.07
2018-12-13T07:34:08.523Z,6.70
2018-12-13T07:36:36.306Z,6.90
2018-12-13T07:39:03.880Z,7.57
2018-12-13T07:41:32.470Z,7.60
2018-12-13T07:44:00.810Z,7.07
2018-12-13T07:46:28.381Z,6.90
2018-12-13T07:48:56.676Z,7.93
2018-12-13T07:51:24.250Z,7.07
2018-12-13T07:53:51.817Z,7.83
2018-12-13T07:56:20.245Z,6.53
2018-12-13T07:58:47.826Z,7.13
2018-12-13T08:01:15.405Z,6.83
2018-12-13T08:03:43.041Z,6.60
2018-12-13T08:06:10.849Z,7.13
2018-12-13T08:08:40.329Z,7.00
2018-12-13T08:11:11.015Z,6.53
2018-12-13T08:13:38.589Z,6.33
2018-12-13T08:16:06.198Z,6.57
2018-12-13T08:18:34.265Z,8.82
2018-12-13T08:21:01.842Z,7.87
2018-12-13T08:23:30.244Z,9.40
2018-12-13T08:25:58.283Z,9.93
2018-12-13T08:28:25.848Z,7.93
2018-12-13T08:30:53.434Z,7.03
2018-12-13T08:33:21.877Z,6.37
2018-12-13T08:35:50.582Z,7.27
2018-12-13T08:38:18.158Z,9.05
2018-12-13T08:40:46.472Z,7.37
2018-12-13T08:43:14.055Z,6.30
2018-12-13T08:45:41.637Z,6.47
2018-12-13T08:48:09.911Z,6.70
2018-12-13T08:50:38.568Z,6.30
2018-12-13T08:53:06.151Z,5.97
2018-12-13T08:55:35.452Z,6.90
2018-12-13T08:58:04.472Z,8.35
2018-12-13T09:00:32.072Z,9.55
2018-12-13T09:02:59.701Z,7.33
2018-12-13T09:05:28.043Z,6.50
2018-12-13T09:07:55.628Z,5.70
2018-12-13T09:10:23.297Z,5.67
2018-12-13T09:12:51.393Z,8.82
2018-12-13T09:15:20.521Z,7.33
2018-12-13T09:17:48.120Z,5.93
2018-12-13T09:20:15.693Z,6.10
2018-12-13T09:22:43.634Z,8.43
2018-12-13T09:25:11.218Z,7.27
2018-12-13T09:27:38.806Z,8.10
2018-12-13T09:30:07.459Z,6.07
2018-12-13T09:32:35.045Z,5.50
2018-12-13T09:35:03.394Z,5.73
2018-12-13T09:37:31.289Z,5.57
2018-12-13T09:39:58.928Z,7.60
2018-12-13T09:42:26.556Z,6.43
2018-12-13T09:44:54.146Z,6.33
2018-12-13T09:47:21.723Z,6.30
2018-12-13T09:49:49.291Z,5.77
2018-12-13T09:52:17.666Z,4.70
2018-12-13T09:54:45.242Z,5.43
2018-12-13T09:57:13.752Z,5.33
2018-12-13T09:59:43.656Z,5.47
2018-12-13T10:02:12.831Z,5.30
2018-12-13T10:04:40.483Z,5.87
2018-12-13T10:07:08.058Z,5.83
2018-12-13T10:09:35.662Z,5.77
2018-12-13T10:12:04.024Z,5.40
2018-12-13T10:14:32.416Z,5.37
2018-12-13T10:17:00.009Z,5.37
2018-12-13T10:19:29.707Z,5.13
2018-12-13T10:21:57.133Z,5.53
2018-12-13T10:24:25.513Z,5.77
2018-12-13T10:26:53.932Z,5.33
2018-12-13T10:29:22.541Z,3.73
2018-12-13T10:31:50.122Z,4.97
2018-12-13T10:34:18.776Z,3.97
2018-12-13T10:36:46.365Z,5.40
2018-12-13T10:39:17.713Z,5.27
2018-12-13T10:41:45.642Z,5.50
2018-12-13T10:44:13.213Z,4.70
2018-12-13T10:46:41.199Z,5.37
2018-12-13T10:49:08.766Z,5.20
2018-12-13T10:51:36.336Z,5.33
2018-12-13T10:54:04.698Z,5.50
2018-12-13T10:56:32.274Z,4.70
2018-12-13T10:58:59.864Z,3.97
2018-12-13T11:01:42.093Z,4.97
2018-12-13T11:04:09.681Z,5.07
2018-12-13T11:06:37.257Z,5.10
2018-12-13T11:09:05.199Z,5.10
2018-12-13T11:11:32.735Z,6.43
2018-12-13T11:14:00.309Z,5.17
2018-12-13T11:16:29.755Z,4.60
2018-12-13T11:18:55.909Z,5.37
2018-12-13T11:21:24.739Z,4.40
2018-12-13T11:23:52.345Z,5.40
2018-12-13T11:26:19.888Z,5.17
2018-12-13T11:29:24.632Z,5.37
2018-12-13T11:31:53.071Z,6.43
2018-12-13T11:34:20.693Z,8.02
2018-12-13T11:36:49.036Z,6.63
2018-12-13T11:39:16.607Z,6.13
2018-12-13T11:41:44.230Z,5.97
2018-12-13T11:44:11.806Z,7.13
2018-12-13T11:46:39.385Z,7.63
2018-12-13T11:49:12.107Z,7.97
2018-12-13T11:51:35.935Z,6.07
2018-12-13T11:54:03.518Z,5.97
2018-12-13T11:56:32.275Z,6.00
2018-12-13T11:58:59.874Z,5.27
2018-12-13T12:01:27.458Z,5.47
2018-12-13T12:03:55.892Z,6.97
2018-12-13T12:06:23.469Z,6.60
2018-12-13T12:08:51.349Z,6.43
2018-12-13T12:11:18.919Z,5.40
2018-12-13T12:13:46.491Z,5.60
2018-12-13T12:16:15.846Z,5.50
2018-12-13T12:18:45.014Z,6.40
2018-12-13T12:21:15.519Z,7.30
2018-12-13T12:23:54.301Z,7.27
2018-12-13T12:26:21.861Z,6.40
2018-12-13T12:28:49.855Z,6.63
2018-12-13T12:31:17.418Z,3.87
2018-12-13T12:33:45.003Z,7.93
2018-12-13T12:36:13.411Z,8.13
2018-12-13T12:38:42.013Z,6.43
2018-12-13T12:41:09.595Z,6.90
2018-12-13T12:43:39.059Z,7.03
2018-12-13T12:46:06.640Z,6.37
2018-12-13T12:48:34.214Z,6.03
2018-12-13T12:51:02.654Z,6.60
2018-12-13T12:53:30.226Z,6.07
2018-12-13T12:55:57.800Z,6.23
2018-12-13T12:58:25.460Z,6.27
2018-12-13T13:00:53.047Z,6.00
2018-12-13T13:03:22.665Z,7.43
2018-12-13T13:05:53.683Z,9.33
2018-12-13T13:08:24.337Z,7.68
2018-12-13T13:10:51.979Z,8.40
2018-12-13T13:13:19.569Z,8.37
2018-12-13T13:15:47.162Z,7.27
2018-12-13T13:18:15.307Z,7.40
2018-12-13T13:20:42.890Z,9.05
2018-12-13T13:23:11.239Z,6.47
2018-12-13T13:25:38.862Z,6.07
2018-12-13T13:28:06.437Z,8.10
2018-12-13T13:30:34.014Z,8.47
2018-12-13T13:33:02.946Z,7.37
2018-12-13T13:35:30.526Z,8.40
2018-12-13T13:37:59.021Z,6.13
2018-12-13T13:40:26.670Z,6.17
2018-12-13T13:42:54.277Z,5.60
2018-12-13T13:45:21.839Z,5.50
2018-12-13T13:47:49.454Z,6.60
2018-12-13T13:50:18.206Z,5.67
2018-12-13T13:52:46.981Z,5.93
2018-12-13T13:55:14.561Z,5.83
2018-12-13T13:57:42.163Z,6.13
2018-12-13T14:00:09.750Z,5.83
2018-12-13T14:02:37.404Z,5.80
2018-12-13T14:05:04.976Z,6.23
2018-12-13T14:07:32.537Z,5.80
2018-12-13T14:10:00.162Z,5.80
2018-12-13T14:12:28.513Z,6.70
2018-12-13T14:14:56.096Z,7.33
2018-12-13T14:17:24.742Z,7.90
2018-12-13T14:19:52.325Z,7.50
2018-12-13T14:22:19.910Z,6.67
2018-12-13T14:24:48.352Z,7.93
2018-12-13T14:27:15.893Z,6.37
2018-12-13T14:29:43.463Z,5.80
2018-12-13T14:32:11.102Z,6.57
2018-12-13T14:34:38.688Z,5.87
2018-12-13T14:37:07.626Z,5.67
2018-12-13T14:39:44.441Z,6.03
2018-12-13T14:42:09.010Z,6.17
2018-12-13T14:44:39.233Z,6.27
2018-12-13T14:47:07.098Z,5.93
2018-12-13T14:49:38.230Z,8.63
2018-12-13T14:52:09.461Z,7.83
2018-12-13T14:54:46.520Z,8.68
2018-12-13T14:57:14.091Z,10.00
2018-12-13T14:59:47.030Z,6.27
2018-12-13T15:02:09.634Z,6.10
2018-12-13T15:04:37.204Z,7.10
2018-12-13T15:07:04.825Z,6.37
2018-12-13T15:09:34.153Z,6.63
2018-12-13T15:12:01.729Z,5.70
2018-12-13T15:14:31.866Z,5.37
2018-12-13T15:17:00.630Z,7.13
2018-12-13T15:19:28.215Z,5.83
2018-12-13T15:21:56.559Z,9.20
2018-12-13T15:24:24.189Z,9.20
2018-12-13T15:26:51.764Z,7.17
2018-12-13T15:29:19.344Z,9.80
2018-12-13T15:31:47.633Z,6.77
2018-12-13T15:34:15.209Z,8.43
2018-12-13T15:36:42.787Z,8.13
2018-12-13T15:39:12.146Z,7.57
2018-12-13T15:41:39.709Z,7.23
2018-12-13T15:44:07.301Z,7.10
2018-12-13T15:46:35.706Z,11.67
2018-12-13T15:49:03.278Z,8.20
2018-12-13T15:51:30.857Z,9.40
2018-12-13T15:54:01.042Z,6.67
2018-12-13T15:56:28.578Z,8.30
2018-12-13T15:58:56.927Z,8.50
2018-12-13T16:01:24.562Z,6.27
2018-12-13T16:03:52.110Z,10.63
2018-12-13T16:06:19.732Z,7.50
2018-12-13T16:08:47.336Z,7.57
2018-12-13T16:11:17.565Z,6.73
2018-12-13T16:13:45.146Z,9.53
2018-12-13T16:16:12.752Z,7.93
2018-12-13T16:18:45.078Z,7.90
2018-12-13T16:21:12.675Z,10.80
2018-12-13T16:23:40.853Z,11.83
2018-12-13T16:26:08.426Z,7.80
2018-12-13T16:28:36.001Z,8.07
2018-12-13T16:31:03.623Z,7.93
2018-12-13T16:33:32.204Z,8.50
2018-12-13T16:36:03.776Z,9.23
2018-12-13T16:38:35.225Z,8.20
2018-12-13T16:41:02.792Z,8.10
2018-12-13T16:43:30.408Z,7.80
2018-12-13T16:45:57.977Z,11.23
2018-12-13T16:48:25.616Z,7.50
2018-12-13T16:50:53.201Z,7.13
2018-12-13T16:53:20.786Z,7.27
2018-12-13T16:55:48.395Z,6.37
2018-12-13T16:58:15.973Z,6.43
2018-12-13T17:00:43.619Z,6.30
2018-12-13T17:03:35.705Z,6.73
2018-12-13T17:06:04.244Z,6.17
2018-12-13T17:08:31.803Z,6.30
2018-12-13T17:11:00.136Z,7.00
2018-12-13T17:13:27.726Z,6.40
2018-12-13T17:15:55.661Z,9.10
2018-12-13T17:18:23.285Z,7.60
2018-12-13T17:20:52.800Z,7.27
2018-12-13T17:23:20.377Z,7.13
2018-12-13T17:25:47.978Z,7.03
2018-12-13T17:28:15.558Z,7.67
2018-12-13T17:30:43.524Z,6.27
2018-12-13T17:33:11.109Z,6.70
2018-12-13T17:35:39.454Z,6.80
2018-12-13T17:38:07.205Z,7.53
2018-12-13T17:40:34.783Z,7.10
2018-12-13T17:43:02.947Z,7.30
2018-12-13T17:45:33.761Z,7.07
2018-12-13T17:48:01.300Z,10.07
2018-12-13T17:50:34.940Z,7.93
2018-12-13T17:53:02.531Z,7.20
2018-12-13T17:55:30.165Z,7.57
2018-12-13T17:57:58.286Z,7.50
2018-12-13T18:00:25.898Z,7.53
2018-12-13T18:02:53.509Z,7.97
2018-12-13T18:05:22.162Z,7.30
2018-12-13T18:07:49.811Z,7.30
2018-12-13T18:10:17.394Z,9.47
2018-12-13T18:12:45.000Z,7.33
2018-12-13T18:15:13.383Z,7.50
2018-12-13T18:17:40.967Z,7.13
2018-12-13T18:20:08.547Z,8.07
2018-12-13T18:22:36.149Z,7.70
2018-12-13T18:25:03.753Z,9.60
2018-12-13T18:27:31.376Z,8.03
2018-12-13T18:29:58.954Z,10.60
2018-12-13T18:32:26.527Z,8.30
2018-12-13T18:34:58.113Z,9.10
2018-12-13T18:37:27.763Z,11.57
2018-12-13T18:39:55.340Z,11.87
2018-12-13T18:42:22.956Z,9.17
2018-12-13T18:44:50.552Z,11.37
2018-12-13T18:47:18.474Z,9.37
2018-12-13T18:49:46.053Z,9.83
2018-12-13T18:52:13.624Z,10.90
2018-12-13T18:54:41.996Z,8.33
2018-12-13T18:57:11.864Z,8.00
2018-12-13T18:59:45.937Z,8.30
2018-12-13T19:02:17.407Z,9.30
2018-12-13T19:04:45.749Z,10.70
2018-12-13T19:07:13.362Z,8.03
2018-12-13T19:09:40.940Z,8.43
2018-12-13T19:12:08.565Z,7.70
2018-12-13T19:14:36.146Z,7.33
2018-12-13T19:17:03.724Z,8.63
2018-12-13T19:19:31.302Z,8.17
2018-12-13T19:21:59.286Z,7.57
2018-12-13T19:24:26.863Z,10.10
2018-12-13T19:26:54.452Z,9.70
2018-12-13T19:29:22.374Z,8.70
2018-12-13T19:31:49.946Z,10.30
2018-12-13T19:34:18.728Z,8.93
2018-12-13T19:36:46.332Z,8.50
2018-12-13T19:39:13.913Z,7.90
2018-12-13T19:41:42.948Z,8.07
2018-12-13T19:44:10.526Z,7.57
2018-12-13T19:46:38.112Z,8.50
2018-12-13T19:49:05.737Z,8.37
2018-12-13T19:51:33.321Z,7.33
2018-12-13T19:54:01.666Z,10.40
2018-12-13T19:56:29.288Z,9.27
2018-12-13T19:58:56.874Z,9.73
2018-12-13T20:01:24.448Z,8.03
2018-12-13T20:03:52.044Z,8.30
2018-12-13T20:06:20.691Z,12.23
2018-12-13T20:08:48.807Z,11.52
2018-12-13T20:11:16.397Z,10.63
2018-12-13T20:13:43.978Z,9.63
2018-12-13T20:16:11.988Z,9.40
2018-12-13T20:18:39.598Z,8.50
2018-12-13T20:21:07.912Z,7.97
2018-12-13T20:23:36.048Z,8.40
2018-12-13T20:26:03.619Z,10.95
2018-12-13T20:28:31.216Z,9.17
2018-12-13T20:30:59.173Z,8.93
2018-12-13T20:33:26.749Z,9.90
2018-12-13T20:35:54.320Z,8.00
2018-12-13T20:38:23.531Z,10.00
2018-12-13T20:40:51.872Z,7.03
2018-12-13T20:43:19.442Z,7.00
2018-12-13T20:45:47.958Z,6.77
2018-12-13T20:48:17.891Z,9.27
2018-12-13T20:50:45.366Z,9.43
2018-12-13T20:53:13.249Z,7.70
2018-12-13T20:55:40.831Z,7.37
2018-12-13T20:58:08.405Z,6.73
2018-12-13T21:00:36.123Z,6.90
2018-12-13T21:03:03.703Z,8.93
2018-12-13T21:05:31.305Z,7.23
2018-12-13T21:08:10.961Z,6.73
2018-12-13T21:10:38.541Z,5.90
2018-12-13T21:13:06.110Z,6.07
2018-12-13T21:15:34.937Z,5.80
2018-12-13T21:18:03.406Z,5.50
2018-12-13T21:20:30.992Z,5.93
2018-12-13T21:22:58.618Z,6.00
2018-12-13T21:25:26.328Z,7.65
2018-12-13T21:27:54.262Z,6.60
2018-12-13T21:30:22.773Z,6.07
2018-12-13T21:32:50.727Z,6.13
2018-12-13T21:35:18.288Z,5.57
2018-12-13T21:37:46.168Z,6.27
2018-12-13T21:40:13.771Z,6.37
2018-12-13T21:42:41.350Z,7.90
2018-12-13T21:45:09.785Z,7.93
2018-12-13T21:47:37.357Z,9.17
2018-12-13T21:50:04.935Z,8.20
2018-12-13T21:52:33.489Z,7.77
2018-12-13T21:55:01.072Z,7.33
2018-12-13T21:57:28.640Z,6.77
2018-12-13T21:59:56.529Z,6.93
2018-12-13T22:02:24.112Z,7.40
2018-12-13T22:04:51.705Z,6.80
2018-12-13T22:07:20.301Z,8.77
2018-12-13T22:09:47.859Z,8.70
2018-12-13T22:12:15.433Z,8.80
2018-12-13T22:14:43.037Z,7.20
2018-12-13T22:17:10.611Z,6.47
2018-12-13T22:19:38.248Z,7.97
2018-12-13T22:22:05.827Z,6.43
2018-12-13T22:24:33.469Z,6.23
2018-12-13T22:27:01.099Z,6.60
2018-12-13T22:29:29.493Z,6.37
2018-12-13T22:31:57.041Z,7.03
2018-12-13T22:34:25.855Z,8.30
2018-12-13T22:36:53.447Z,6.40
2018-12-13T22:39:21.026Z,6.57
2018-12-13T22:41:48.763Z,7.07
2018-12-13T22:44:16.331Z,6.83
2018-12-13T22:46:44.221Z,5.83
2018-12-13T22:49:12.049Z,6.10
2018-12-13T22:51:39.563Z,6.53
2018-12-13T22:54:08.815Z,5.70
2018-12-13T22:56:36.386Z,6.73
2018-12-13T22:59:03.955Z,4.97
2018-12-13T23:01:31.597Z,7.00
2018-12-13T23:03:59.166Z,6.27
2018-12-13T23:06:26.779Z,5.97
2018-12-13T23:08:54.392Z,5.87
2018-12-13T23:11:22.039Z,7.00
2018-12-13T23:13:50.444Z,6.20
2018-12-13T23:16:18.039Z,6.07
2018-12-13T23:18:45.631Z,6.83
2018-12-13T23:21:13.256Z,6.37
2018-12-13T23:23:40.821Z,6.90
2018-12-13T23:26:08.404Z,5.83
2018-12-13T23:28:36.819Z,8.03
2018-12-13T23:31:05.528Z,6.67
2018-12-13T23:33:33.107Z,6.23
2018-12-13T23:36:00.700Z,6.87
2018-12-13T23:38:29.061Z,6.70
2018-12-13T23:40:56.684Z,6.00
2018-12-13T23:43:24.266Z,6.53
2018-12-13T23:45:51.837Z,5.60
2018-12-13T23:48:19.507Z,8.57
2018-12-13T23:50:47.100Z,8.00
2018-12-13T23:53:14.744Z,6.60
2018-12-13T23:55:43.150Z,6.07
2018-12-13T23:58:10.684Z,5.87
